sensor_id;sensor_type;location;lat;lon;timestamp;temperature;humidity
23188;DHT22;11762;59.878;17.686;2023-01-15T00:00:51;2.40;99.90
23188;DHT22;11762;59.878;17.686;2023-01-15T00:03:18;2.40;99.90
23188;DHT22;11762;59.878;17.686;2023-01-15T00:05:45;2.40;99.90
23188;DHT22;11762;59.878;17.686;2023-01-15T00:08:12;2.50;99.90
23188;DHT22;11762;59.878;17.686;2023-01-15T00:10:39;2.50;99.90
23188;DHT22;11762;59.878;17.686;2023-01-15T00:13:06;2.60;99.90
23188;DHT22;11762;59.878;17.686;2023-01-15T00:15:33;2.50;99.90
23188;DHT22;11762;59.878;17.686;2023-01-15T00:18:02;2.60;99.90
23188;DHT22;11762;59.878;17.686;2023-01-15T00:20:29;2.70;99.90
23188;DHT22;11762;59.878;17.686;2023-01-15T00:22:56;2.70;99.90
23188;DHT22;11762;59.878;17.686;2023-01-15T00:25:23;2.80;99.90
23188;DHT22;11762;59.878;17.686;2023-01-15T00:28:08;2.80;99.90
23188;DHT22;11762;59.878;17.686;2023-01-15T00:30:39;2.80;99.90
23188;DHT22;11762;59.878;17.686;2023-01-15T00:33:08;2.90;99.90
23188;DHT22;11762;59.878;17.686;2023-01-15T00:35:35;2.90;99.90
23188;DHT22;11762;59.878;17.686;2023-01-15T00:38:02;3.00;99.90
23188;DHT22;11762;59.878;17.686;2023-01-15T00:40:30;3.00;99.90
23188;DHT22;11762;59.878;17.686;2023-01-15T00:42:56;3.00;99.90
23188;DHT22;11762;59.878;17.686;2023-01-15T00:45:23;3.00;99.90
23188;DHT22;11762;59.878;17.686;2023-01-15T00:47:50;3.10;99.90
23188;DHT22;11762;59.878;17.686;2023-01-15T00:50:19;3.10;99.90
23188;DHT22;11762;59.878;17.686;2023-01-15T00:52:46;3.20;99.90
23188;DHT22;11762;59.878;17.686;2023-01-15T00:55:13;3.30;99.90
23188;DHT22;11762;59.878;17.686;2023-01-15T00:57:40;3.30;99.90
23188;DHT22;11762;59.878;17.686;2023-01-15T01:00:09;3.30;99.90
23188;DHT22;11762;59.878;17.686;2023-01-15T01:02:38;3.30;99.90
23188;DHT22;11762;59.878;17.686;2023-01-15T01:05:05;3.30;99.90
23188;DHT22;11762;59.878;17.686;2023-01-15T01:07:33;3.40;99.90
23188;DHT22;11762;59.878;17.686;2023-01-15T01:10:01;3.40;99.90
23188;DHT22;11762;59.878;17.686;2023-01-15T01:12:28;3.40;99.90
23188;DHT22;11762;59.878;17.686;2023-01-15T01:14:55;3.50;99.90
23188;DHT22;11762;59.878;17.686;2023-01-15T01:17:21;3.50;99.90
23188;DHT22;11762;59.878;17.686;2023-01-15T01:19:49;3.50;99.90
23188;DHT22;11762;59.878;17.686;2023-01-15T01:22:16;3.50;99.90
23188;DHT22;11762;59.878;17.686;2023-01-15T01:24:44;3.60;99.90
23188;DHT22;11762;59.878;17.686;2023-01-15T01:27:11;3.60;99.90
23188;DHT22;11762;59.878;17.686;2023-01-15T01:29:38;3.60;99.90
23188;DHT22;11762;59.878;17.686;2023-01-15T01:32:05;3.60;99.90
23188;DHT22;11762;59.878;17.686;2023-01-15T01:34:32;3.70;99.90
23188;DHT22;11762;59.878;17.686;2023-01-15T01:36:59;3.70;99.90
23188;DHT22;11762;59.878;17.686;2023-01-15T01:39:26;3.70;99.90
23188;DHT22;11762;59.878;17.686;2023-01-15T01:41:55;3.80;99.90
23188;DHT22;11762;59.878;17.686;2023-01-15T01:44:57;3.80;99.90
23188;DHT22;11762;59.878;17.686;2023-01-15T01:47:25;3.80;99.90
23188;DHT22;11762;59.878;17.686;2023-01-15T01:49:57;3.80;99.90
23188;DHT22;11762;59.878;17.686;2023-01-15T01:52:29;3.80;99.90
23188;DHT22;11762;59.878;17.686;2023-01-15T01:54:58;3.80;99.90
23188;DHT22;11762;59.878;17.686;2023-01-15T01:57:27;3.90;99.90
23188;DHT22;11762;59.878;17.686;2023-01-15T01:59:54;3.90;99.90
23188;DHT22;11762;59.878;17.686;2023-01-15T02:02:23;3.90;99.90
23188;DHT22;11762;59.878;17.686;2023-01-15T02:04:51;3.90;99.90
23188;DHT22;11762;59.878;17.686;2023-01-15T02:07:18;3.90;99.90
23188;DHT22;11762;59.878;17.686;2023-01-15T02:09:45;3.90;99.90
23188;DHT22;11762;59.878;17.686;2023-01-15T02:12:18;3.90;99.90
23188;DHT22;11762;59.878;17.686;2023-01-15T02:14:52;3.90;99.90
23188;DHT22;11762;59.878;17.686;2023-01-15T02:17:31;3.90;99.90
23188;DHT22;11762;59.878;17.686;2023-01-15T02:20:22;3.90;99.90
23188;DHT22;11762;59.878;17.686;2023-01-15T02:23:11;3.90;99.90
23188;DHT22;11762;59.878;17.686;2023-01-15T02:28:31;3.80;99.90
23188;DHT22;11762;59.878;17.686;2023-01-15T02:31:03;3.70;99.90
23188;DHT22;11762;59.878;17.686;2023-01-15T02:33:36;3.70;99.90
23188;DHT22;11762;59.878;17.686;2023-01-15T02:36:07;3.70;99.90
23188;DHT22;11762;59.878;17.686;2023-01-15T02:38:38;3.70;99.90
23188;DHT22;11762;59.878;17.686;2023-01-15T02:41:08;3.70;99.90
23188;DHT22;11762;59.878;17.686;2023-01-15T02:43:45;3.70;99.90
23188;DHT22;11762;59.878;17.686;2023-01-15T02:46:14;3.60;99.90
23188;DHT22;11762;59.878;17.686;2023-01-15T02:48:45;3.60;99.90
23188;DHT22;11762;59.878;17.686;2023-01-15T02:51:14;3.50;99.90
23188;DHT22;11762;59.878;17.686;2023-01-15T02:53:44;3.50;99.90
23188;DHT22;11762;59.878;17.686;2023-01-15T02:56:14;3.50;99.90
23188;DHT22;11762;59.878;17.686;2023-01-15T02:58:44;3.50;99.90
23188;DHT22;11762;59.878;17.686;2023-01-15T03:01:15;3.40;99.90
23188;DHT22;11762;59.878;17.686;2023-01-15T03:03:47;3.40;99.90
23188;DHT22;11762;59.878;17.686;2023-01-15T03:06:20;3.40;99.90
23188;DHT22;11762;59.878;17.686;2023-01-15T03:08:51;3.30;99.90
23188;DHT22;11762;59.878;17.686;2023-01-15T03:11:19;3.30;99.90
23188;DHT22;11762;59.878;17.686;2023-01-15T03:13:52;3.30;99.90
23188;DHT22;11762;59.878;17.686;2023-01-15T03:16:30;3.30;99.90
23188;DHT22;11762;59.878;17.686;2023-01-15T03:19:18;3.30;99.90
23188;DHT22;11762;59.878;17.686;2023-01-15T03:21:50;3.30;99.90
23188;DHT22;11762;59.878;17.686;2023-01-15T03:24:26;3.30;99.90
23188;DHT22;11762;59.878;17.686;2023-01-15T03:26:54;3.30;99.90
23188;DHT22;11762;59.878;17.686;2023-01-15T03:29:25;3.20;99.90
23188;DHT22;11762;59.878;17.686;2023-01-15T03:31:53;3.20;99.90
23188;DHT22;11762;59.878;17.686;2023-01-15T03:34:20;3.30;99.90
23188;DHT22;11762;59.878;17.686;2023-01-15T03:36:47;3.30;99.90
23188;DHT22;11762;59.878;17.686;2023-01-15T03:39:14;3.30;99.90
23188;DHT22;11762;59.878;17.686;2023-01-15T03:41:47;3.30;99.90
23188;DHT22;11762;59.878;17.686;2023-01-15T03:44:28;3.30;99.90
23188;DHT22;11762;59.878;17.686;2023-01-15T03:47:05;3.30;99.90
23188;DHT22;11762;59.878;17.686;2023-01-15T03:49:41;3.30;99.90
23188;DHT22;11762;59.878;17.686;2023-01-15T03:52:17;3.20;99.90
23188;DHT22;11762;59.878;17.686;2023-01-15T03:54:49;3.20;99.90
23188;DHT22;11762;59.878;17.686;2023-01-15T03:57:25;3.10;99.90
23188;DHT22;11762;59.878;17.686;2023-01-15T03:59:56;3.10;99.90
23188;DHT22;11762;59.878;17.686;2023-01-15T04:02:26;3.10;99.90
23188;DHT22;11762;59.878;17.686;2023-01-15T04:04:55;3.10;99.90
23188;DHT22;11762;59.878;17.686;2023-01-15T04:07:23;3.10;99.90
23188;DHT22;11762;59.878;17.686;2023-01-15T04:09:51;3.00;99.90
23188;DHT22;11762;59.878;17.686;2023-01-15T04:12:18;3.00;99.90
23188;DHT22;11762;59.878;17.686;2023-01-15T04:14:45;3.00;99.90
23188;DHT22;11762;59.878;17.686;2023-01-15T04:17:14;3.00;99.90
23188;DHT22;11762;59.878;17.686;2023-01-15T04:19:41;3.00;99.90
23188;DHT22;11762;59.878;17.686;2023-01-15T04:22:09;3.00;99.90
23188;DHT22;11762;59.878;17.686;2023-01-15T04:24:37;3.00;99.90
23188;DHT22;11762;59.878;17.686;2023-01-15T04:27:04;3.00;99.90
23188;DHT22;11762;59.878;17.686;2023-01-15T04:29:31;3.00;99.90
23188;DHT22;11762;59.878;17.686;2023-01-15T04:31:58;3.00;99.90
23188;DHT22;11762;59.878;17.686;2023-01-15T04:34:27;2.90;99.90
23188;DHT22;11762;59.878;17.686;2023-01-15T04:36:55;2.90;99.90
23188;DHT22;11762;59.878;17.686;2023-01-15T04:39:22;2.90;99.90
23188;DHT22;11762;59.878;17.686;2023-01-15T04:41:49;2.90;99.90
23188;DHT22;11762;59.878;17.686;2023-01-15T04:44:34;2.90;99.90
23188;DHT22;11762;59.878;17.686;2023-01-15T04:47:01;2.90;99.90
23188;DHT22;11762;59.878;17.686;2023-01-15T04:49:29;2.90;99.90
23188;DHT22;11762;59.878;17.686;2023-01-15T04:51:56;2.90;99.90
23188;DHT22;11762;59.878;17.686;2023-01-15T04:54:24;2.90;99.90
23188;DHT22;11762;59.878;17.686;2023-01-15T04:56:52;2.90;99.90
23188;DHT22;11762;59.878;17.686;2023-01-15T04:59:21;2.80;99.90
23188;DHT22;11762;59.878;17.686;2023-01-15T05:01:49;2.90;99.90
23188;DHT22;11762;59.878;17.686;2023-01-15T05:04:16;2.80;99.90
23188;DHT22;11762;59.878;17.686;2023-01-15T05:06:45;2.80;99.90
23188;DHT22;11762;59.878;17.686;2023-01-15T05:09:12;2.80;99.90
23188;DHT22;11762;59.878;17.686;2023-01-15T05:11:39;2.80;99.90
23188;DHT22;11762;59.878;17.686;2023-01-15T05:14:07;2.70;99.90
23188;DHT22;11762;59.878;17.686;2023-01-15T05:16:34;2.70;99.90
23188;DHT22;11762;59.878;17.686;2023-01-15T05:19:04;2.60;99.90
23188;DHT22;11762;59.878;17.686;2023-01-15T05:21:34;2.60;99.90
23188;DHT22;11762;59.878;17.686;2023-01-15T05:24:05;2.60;99.90
23188;DHT22;11762;59.878;17.686;2023-01-15T05:26:33;2.60;99.90
23188;DHT22;11762;59.878;17.686;2023-01-15T05:29:02;2.50;99.90
23188;DHT22;11762;59.878;17.686;2023-01-15T05:31:29;2.50;99.90
23188;DHT22;11762;59.878;17.686;2023-01-15T05:33:58;2.60;99.90
23188;DHT22;11762;59.878;17.686;2023-01-15T05:36:28;2.50;99.90
23188;DHT22;11762;59.878;17.686;2023-01-15T05:38:56;2.50;99.90
23188;DHT22;11762;59.878;17.686;2023-01-15T05:41:28;2.50;99.90
23188;DHT22;11762;59.878;17.686;2023-01-15T05:44:13;2.50;99.90
23188;DHT22;11762;59.878;17.686;2023-01-15T05:46:42;2.60;99.90
23188;DHT22;11762;59.878;17.686;2023-01-15T05:49:11;2.60;99.90
23188;DHT22;11762;59.878;17.686;2023-01-15T05:51:38;2.60;99.90
23188;DHT22;11762;59.878;17.686;2023-01-15T05:54:08;2.70;99.90
23188;DHT22;11762;59.878;17.686;2023-01-15T05:56:38;2.70;99.90
23188;DHT22;11762;59.878;17.686;2023-01-15T05:59:05;2.70;99.90
23188;DHT22;11762;59.878;17.686;2023-01-15T06:01:33;2.80;99.90
23188;DHT22;11762;59.878;17.686;2023-01-15T06:04:01;2.90;99.90
23188;DHT22;11762;59.878;17.686;2023-01-15T06:06:29;2.90;99.90
23188;DHT22;11762;59.878;17.686;2023-01-15T06:08:56;2.90;99.90
23188;DHT22;11762;59.878;17.686;2023-01-15T06:11:23;3.00;99.90
23188;DHT22;11762;59.878;17.686;2023-01-15T06:13:52;3.10;99.90
23188;DHT22;11762;59.878;17.686;2023-01-15T06:16:19;3.10;99.90
23188;DHT22;11762;59.878;17.686;2023-01-15T06:18:46;3.20;99.90
23188;DHT22;11762;59.878;17.686;2023-01-15T06:21:13;3.20;99.90
23188;DHT22;11762;59.878;17.686;2023-01-15T06:23:41;3.30;99.90
23188;DHT22;11762;59.878;17.686;2023-01-15T06:26:11;3.30;99.90
23188;DHT22;11762;59.878;17.686;2023-01-15T06:28:38;3.40;99.90
23188;DHT22;11762;59.878;17.686;2023-01-15T06:31:09;3.40;99.90
23188;DHT22;11762;59.878;17.686;2023-01-15T06:33:38;3.50;99.90
23188;DHT22;11762;59.878;17.686;2023-01-15T06:36:05;3.50;99.90
23188;DHT22;11762;59.878;17.686;2023-01-15T06:38:33;3.50;99.90
23188;DHT22;11762;59.878;17.686;2023-01-15T06:41:01;3.60;99.90
23188;DHT22;11762;59.878;17.686;2023-01-15T06:43:28;3.60;99.90
23188;DHT22;11762;59.878;17.686;2023-01-15T06:46:16;3.60;99.90
23188;DHT22;11762;59.878;17.686;2023-01-15T06:49:00;3.60;99.90
23188;DHT22;11762;59.878;17.686;2023-01-15T06:51:27;3.60;99.90
23188;DHT22;11762;59.878;17.686;2023-01-15T06:53:54;3.60;99.90
23188;DHT22;11762;59.878;17.686;2023-01-15T06:56:21;3.60;99.90
23188;DHT22;11762;59.878;17.686;2023-01-15T06:58:48;3.50;99.90
23188;DHT22;11762;59.878;17.686;2023-01-15T07:01:17;3.60;99.90
23188;DHT22;11762;59.878;17.686;2023-01-15T07:03:44;3.60;99.90
23188;DHT22;11762;59.878;17.686;2023-01-15T07:06:12;3.50;99.90
23188;DHT22;11762;59.878;17.686;2023-01-15T07:08:39;3.60;99.90
23188;DHT22;11762;59.878;17.686;2023-01-15T07:11:08;3.60;99.90
23188;DHT22;11762;59.878;17.686;2023-01-15T07:13:35;3.60;99.90
23188;DHT22;11762;59.878;17.686;2023-01-15T07:16:03;3.60;99.90
23188;DHT22;11762;59.878;17.686;2023-01-15T07:18:32;3.60;99.90
23188;DHT22;11762;59.878;17.686;2023-01-15T07:21:00;3.60;99.90
23188;DHT22;11762;59.878;17.686;2023-01-15T07:23:27;3.60;99.90
23188;DHT22;11762;59.878;17.686;2023-01-15T07:25:54;3.70;99.90
23188;DHT22;11762;59.878;17.686;2023-01-15T07:28:22;3.70;99.90
23188;DHT22;11762;59.878;17.686;2023-01-15T07:30:50;3.70;99.90
23188;DHT22;11762;59.878;17.686;2023-01-15T07:33:17;3.70;99.90
23188;DHT22;11762;59.878;17.686;2023-01-15T07:35:45;3.70;99.90
23188;DHT22;11762;59.878;17.686;2023-01-15T07:38:12;3.80;99.90
23188;DHT22;11762;59.878;17.686;2023-01-15T07:40:39;3.70;99.90
23188;DHT22;11762;59.878;17.686;2023-01-15T07:43:07;3.80;99.90
23188;DHT22;11762;59.878;17.686;2023-01-15T07:45:51;3.80;99.90
23188;DHT22;11762;59.878;17.686;2023-01-15T07:48:36;3.80;99.90
23188;DHT22;11762;59.878;17.686;2023-01-15T07:51:33;3.90;99.90
23188;DHT22;11762;59.878;17.686;2023-01-15T07:54:01;3.90;99.90
23188;DHT22;11762;59.878;17.686;2023-01-15T07:56:28;3.90;99.90
23188;DHT22;11762;59.878;17.686;2023-01-15T07:58:56;3.90;99.90
23188;DHT22;11762;59.878;17.686;2023-01-15T08:01:23;3.90;99.90
23188;DHT22;11762;59.878;17.686;2023-01-15T08:03:50;3.90;99.90
23188;DHT22;11762;59.878;17.686;2023-01-15T08:06:17;3.80;99.90
23188;DHT22;11762;59.878;17.686;2023-01-15T08:08:45;3.80;99.90
23188;DHT22;11762;59.878;17.686;2023-01-15T08:11:12;3.80;99.90
23188;DHT22;11762;59.878;17.686;2023-01-15T08:13:57;3.80;99.90
23188;DHT22;11762;59.878;17.686;2023-01-15T08:16:41;3.70;99.90
23188;DHT22;11762;59.878;17.686;2023-01-15T08:19:08;3.70;99.90
23188;DHT22;11762;59.878;17.686;2023-01-15T08:21:35;3.60;99.90
23188;DHT22;11762;59.878;17.686;2023-01-15T08:24:04;3.60;99.90
23188;DHT22;11762;59.878;17.686;2023-01-15T08:26:32;3.60;99.90
23188;DHT22;11762;59.878;17.686;2023-01-15T08:28:59;3.50;99.90
23188;DHT22;11762;59.878;17.686;2023-01-15T08:31:26;3.50;99.90
23188;DHT22;11762;59.878;17.686;2023-01-15T08:33:53;3.50;99.90
23188;DHT22;11762;59.878;17.686;2023-01-15T08:36:20;3.50;99.90
23188;DHT22;11762;59.878;17.686;2023-01-15T08:38:47;3.40;99.90
23188;DHT22;11762;59.878;17.686;2023-01-15T08:41:16;3.40;99.90
23188;DHT22;11762;59.878;17.686;2023-01-15T08:43:43;3.40;99.90
23188;DHT22;11762;59.878;17.686;2023-01-15T08:46:10;3.40;99.90
23188;DHT22;11762;59.878;17.686;2023-01-15T08:48:38;3.40;99.90
23188;DHT22;11762;59.878;17.686;2023-01-15T08:51:06;3.50;99.90
23188;DHT22;11762;59.878;17.686;2023-01-15T08:53:34;3.50;99.90
23188;DHT22;11762;59.878;17.686;2023-01-15T08:56:01;3.60;99.90
23188;DHT22;11762;59.878;17.686;2023-01-15T08:58:31;3.60;99.90
23188;DHT22;11762;59.878;17.686;2023-01-15T09:01:03;3.60;99.90
23188;DHT22;11762;59.878;17.686;2023-01-15T09:03:30;3.70;99.90
23188;DHT22;11762;59.878;17.686;2023-01-15T09:05:58;3.70;99.90
23188;DHT22;11762;59.878;17.686;2023-01-15T09:08:25;3.70;99.90
23188;DHT22;11762;59.878;17.686;2023-01-15T09:10:55;3.70;99.90
23188;DHT22;11762;59.878;17.686;2023-01-15T09:13:22;3.70;99.90
23188;DHT22;11762;59.878;17.686;2023-01-15T09:15:52;3.80;99.90
23188;DHT22;11762;59.878;17.686;2023-01-15T09:18:19;3.80;99.90
23188;DHT22;11762;59.878;17.686;2023-01-15T09:20:47;3.80;99.90
23188;DHT22;11762;59.878;17.686;2023-01-15T09:23:14;3.80;99.90
23188;DHT22;11762;59.878;17.686;2023-01-15T09:25:50;3.90;99.90
23188;DHT22;11762;59.878;17.686;2023-01-15T09:28:17;3.90;99.90
23188;DHT22;11762;59.878;17.686;2023-01-15T09:30:45;3.90;99.90
23188;DHT22;11762;59.878;17.686;2023-01-15T09:33:13;4.00;99.90
23188;DHT22;11762;59.878;17.686;2023-01-15T09:35:41;4.00;99.90
23188;DHT22;11762;59.878;17.686;2023-01-15T09:38:10;4.00;99.90
23188;DHT22;11762;59.878;17.686;2023-01-15T09:40:45;3.90;99.90
23188;DHT22;11762;59.878;17.686;2023-01-15T09:43:26;4.00;99.90
23188;DHT22;11762;59.878;17.686;2023-01-15T09:45:58;4.00;99.90
23188;DHT22;11762;59.878;17.686;2023-01-15T09:48:36;4.10;99.90
23188;DHT22;11762;59.878;17.686;2023-01-15T09:51:15;4.10;99.90
23188;DHT22;11762;59.878;17.686;2023-01-15T09:54:01;4.10;99.90
23188;DHT22;11762;59.878;17.686;2023-01-15T09:56:34;4.10;99.90
23188;DHT22;11762;59.878;17.686;2023-01-15T09:59:08;4.10;99.90
23188;DHT22;11762;59.878;17.686;2023-01-15T10:01:40;4.20;99.90
23188;DHT22;11762;59.878;17.686;2023-01-15T10:04:15;4.20;99.90
23188;DHT22;11762;59.878;17.686;2023-01-15T10:06:47;4.20;99.90
23188;DHT22;11762;59.878;17.686;2023-01-15T10:09:19;4.30;99.90
23188;DHT22;11762;59.878;17.686;2023-01-15T10:11:51;4.30;99.90
23188;DHT22;11762;59.878;17.686;2023-01-15T10:14:45;4.30;99.90
23188;DHT22;11762;59.878;17.686;2023-01-15T10:17:24;4.30;99.90
23188;DHT22;11762;59.878;17.686;2023-01-15T10:19:53;4.30;99.90
23188;DHT22;11762;59.878;17.686;2023-01-15T10:22:39;4.30;99.90
23188;DHT22;11762;59.878;17.686;2023-01-15T10:25:15;4.20;99.90
23188;DHT22;11762;59.878;17.686;2023-01-15T10:27:45;4.20;99.90
23188;DHT22;11762;59.878;17.686;2023-01-15T10:30:15;4.20;99.90
23188;DHT22;11762;59.878;17.686;2023-01-15T10:32:44;4.20;99.90
23188;DHT22;11762;59.878;17.686;2023-01-15T10:35:24;4.20;99.90
23188;DHT22;11762;59.878;17.686;2023-01-15T10:37:57;4.20;99.90
23188;DHT22;11762;59.878;17.686;2023-01-15T10:40:45;4.20;99.90
23188;DHT22;11762;59.878;17.686;2023-01-15T10:43:21;4.10;99.90
23188;DHT22;11762;59.878;17.686;2023-01-15T10:45:51;4.10;99.90
23188;DHT22;11762;59.878;17.686;2023-01-15T10:48:26;4.10;99.90
23188;DHT22;11762;59.878;17.686;2023-01-15T10:51:00;4.10;99.90
23188;DHT22;11762;59.878;17.686;2023-01-15T10:53:33;4.10;99.90
23188;DHT22;11762;59.878;17.686;2023-01-15T10:56:06;4.10;99.90
23188;DHT22;11762;59.878;17.686;2023-01-15T10:58:38;4.10;99.90
23188;DHT22;11762;59.878;17.686;2023-01-15T11:01:10;4.10;99.90
23188;DHT22;11762;59.878;17.686;2023-01-15T11:03:40;4.10;99.90
23188;DHT22;11762;59.878;17.686;2023-01-15T11:06:12;4.10;99.90
23188;DHT22;11762;59.878;17.686;2023-01-15T11:08:43;4.10;99.90
23188;DHT22;11762;59.878;17.686;2023-01-15T11:11:30;4.10;99.90
23188;DHT22;11762;59.878;17.686;2023-01-15T11:14:35;4.10;99.90
23188;DHT22;11762;59.878;17.686;2023-01-15T11:17:21;4.00;99.90
23188;DHT22;11762;59.878;17.686;2023-01-15T11:20:14;4.00;99.90
23188;DHT22;11762;59.878;17.686;2023-01-15T11:22:44;3.90;99.90
23188;DHT22;11762;59.878;17.686;2023-01-15T11:25:11;4.00;99.90
23188;DHT22;11762;59.878;17.686;2023-01-15T11:27:38;4.00;99.90
23188;DHT22;11762;59.878;17.686;2023-01-15T11:32:54;4.00;99.90
23188;DHT22;11762;59.878;17.686;2023-01-15T11:35:21;4.00;99.90
23188;DHT22;11762;59.878;17.686;2023-01-15T11:38:01;4.10;99.90
23188;DHT22;11762;59.878;17.686;2023-01-15T11:40:28;4.10;99.90
23188;DHT22;11762;59.878;17.686;2023-01-15T11:42:55;4.10;99.90
23188;DHT22;11762;59.878;17.686;2023-01-15T11:45:50;4.00;99.90
23188;DHT22;11762;59.878;17.686;2023-01-15T11:48:43;4.10;99.90
23188;DHT22;11762;59.878;17.686;2023-01-15T11:51:28;4.20;99.90
23188;DHT22;11762;59.878;17.686;2023-01-15T11:54:02;4.20;99.90
23188;DHT22;11762;59.878;17.686;2023-01-15T11:56:32;4.30;99.90
23188;DHT22;11762;59.878;17.686;2023-01-15T11:59:02;4.20;99.90
23188;DHT22;11762;59.878;17.686;2023-01-15T12:01:32;4.20;99.90
23188;DHT22;11762;59.878;17.686;2023-01-15T12:04:04;4.20;99.90
23188;DHT22;11762;59.878;17.686;2023-01-15T12:06:36;4.20;99.90
23188;DHT22;11762;59.878;17.686;2023-01-15T12:09:15;4.20;99.90
23188;DHT22;11762;59.878;17.686;2023-01-15T12:12:00;4.20;99.90
23188;DHT22;11762;59.878;17.686;2023-01-15T12:14:58;4.20;99.90
23188;DHT22;11762;59.878;17.686;2023-01-15T12:20:38;4.30;99.90
23188;DHT22;11762;59.878;17.686;2023-01-15T12:23:29;4.40;99.90
23188;DHT22;11762;59.878;17.686;2023-01-15T12:26:07;4.40;99.90
23188;DHT22;11762;59.878;17.686;2023-01-15T12:28:47;4.30;99.90
23188;DHT22;11762;59.878;17.686;2023-01-15T12:31:21;4.30;99.90
23188;DHT22;11762;59.878;17.686;2023-01-15T12:33:52;4.30;99.90
23188;DHT22;11762;59.878;17.686;2023-01-15T12:36:24;4.20;99.90
23188;DHT22;11762;59.878;17.686;2023-01-15T12:38:56;4.30;99.90
23188;DHT22;11762;59.878;17.686;2023-01-15T12:41:29;4.20;99.90
23188;DHT22;11762;59.878;17.686;2023-01-15T12:44:11;4.30;99.90
23188;DHT22;11762;59.878;17.686;2023-01-15T12:46:58;4.30;99.90
23188;DHT22;11762;59.878;17.686;2023-01-15T12:49:30;4.40;99.90
23188;DHT22;11762;59.878;17.686;2023-01-15T12:52:02;4.30;99.90
23188;DHT22;11762;59.878;17.686;2023-01-15T12:54:35;4.20;99.90
23188;DHT22;11762;59.878;17.686;2023-01-15T12:57:12;4.20;99.90
23188;DHT22;11762;59.878;17.686;2023-01-15T12:59:46;4.30;99.90
23188;DHT22;11762;59.878;17.686;2023-01-15T13:02:20;4.40;99.90
23188;DHT22;11762;59.878;17.686;2023-01-15T13:04:49;4.40;99.90
23188;DHT22;11762;59.878;17.686;2023-01-15T13:07:32;4.40;99.90
23188;DHT22;11762;59.878;17.686;2023-01-15T13:10:05;4.40;99.90
23188;DHT22;11762;59.878;17.686;2023-01-15T13:12:35;4.40;99.90
23188;DHT22;11762;59.878;17.686;2023-01-15T13:15:03;4.40;99.90
23188;DHT22;11762;59.878;17.686;2023-01-15T13:17:40;4.40;99.90
23188;DHT22;11762;59.878;17.686;2023-01-15T13:20:24;4.40;99.90
23188;DHT22;11762;59.878;17.686;2023-01-15T13:23:02;4.40;99.90
23188;DHT22;11762;59.878;17.686;2023-01-15T13:25:55;4.40;99.90
23188;DHT22;11762;59.878;17.686;2023-01-15T13:28:37;4.40;99.90
23188;DHT22;11762;59.878;17.686;2023-01-15T13:31:15;4.50;99.90
23188;DHT22;11762;59.878;17.686;2023-01-15T13:33:51;4.40;99.90
23188;DHT22;11762;59.878;17.686;2023-01-15T13:36:25;4.40;99.90
23188;DHT22;11762;59.878;17.686;2023-01-15T13:38:57;4.40;99.90
23188;DHT22;11762;59.878;17.686;2023-01-15T13:41:27;4.50;99.90
23188;DHT22;11762;59.878;17.686;2023-01-15T13:44:18;4.40;99.90
23188;DHT22;11762;59.878;17.686;2023-01-15T13:46:47;4.40;99.90
23188;DHT22;11762;59.878;17.686;2023-01-15T13:49:17;4.40;99.90
23188;DHT22;11762;59.878;17.686;2023-01-15T13:51:47;4.40;99.90
23188;DHT22;11762;59.878;17.686;2023-01-15T13:54:17;4.40;99.90
23188;DHT22;11762;59.878;17.686;2023-01-15T13:56:44;4.40;99.90
23188;DHT22;11762;59.878;17.686;2023-01-15T13:59:34;4.40;99.90
23188;DHT22;11762;59.878;17.686;2023-01-15T14:02:25;4.40;99.90
23188;DHT22;11762;59.878;17.686;2023-01-15T14:04:53;4.40;99.90
23188;DHT22;11762;59.878;17.686;2023-01-15T14:07:30;4.40;99.90
23188;DHT22;11762;59.878;17.686;2023-01-15T14:10:07;4.40;99.90
23188;DHT22;11762;59.878;17.686;2023-01-15T14:12:42;4.40;99.90
23188;DHT22;11762;59.878;17.686;2023-01-15T14:15:33;4.30;99.90
23188;DHT22;11762;59.878;17.686;2023-01-15T14:18:33;4.30;99.90
23188;DHT22;11762;59.878;17.686;2023-01-15T14:21:14;4.30;99.90
23188;DHT22;11762;59.878;17.686;2023-01-15T14:24:19;4.30;99.90
23188;DHT22;11762;59.878;17.686;2023-01-15T14:26:58;4.10;99.90
23188;DHT22;11762;59.878;17.686;2023-01-15T14:29:44;4.10;99.90
23188;DHT22;11762;59.878;17.686;2023-01-15T14:32:26;4.00;99.90
23188;DHT22;11762;59.878;17.686;2023-01-15T14:34:55;4.00;99.90
23188;DHT22;11762;59.878;17.686;2023-01-15T14:37:26;4.00;99.90
23188;DHT22;11762;59.878;17.686;2023-01-15T14:39:58;4.10;99.90
23188;DHT22;11762;59.878;17.686;2023-01-15T14:42:29;4.10;99.90
23188;DHT22;11762;59.878;17.686;2023-01-15T14:45:20;4.10;99.90
23188;DHT22;11762;59.878;17.686;2023-01-15T14:47:52;4.20;99.90
23188;DHT22;11762;59.878;17.686;2023-01-15T14:50:38;4.10;99.90
23188;DHT22;11762;59.878;17.686;2023-01-15T14:53:37;4.10;99.90
23188;DHT22;11762;59.878;17.686;2023-01-15T14:56:12;4.10;99.90
23188;DHT22;11762;59.878;17.686;2023-01-15T14:58:54;4.10;99.90
23188;DHT22;11762;59.878;17.686;2023-01-15T15:01:36;4.10;99.90
23188;DHT22;11762;59.878;17.686;2023-01-15T15:04:18;4.10;99.90
23188;DHT22;11762;59.878;17.686;2023-01-15T15:06:51;4.20;99.90
23188;DHT22;11762;59.878;17.686;2023-01-15T15:09:28;4.20;99.90
23188;DHT22;11762;59.878;17.686;2023-01-15T15:12:04;4.10;99.90
23188;DHT22;11762;59.878;17.686;2023-01-15T15:14:48;4.10;99.90
23188;DHT22;11762;59.878;17.686;2023-01-15T15:17:24;4.20;99.90
23188;DHT22;11762;59.878;17.686;2023-01-15T15:20:01;4.10;99.90
23188;DHT22;11762;59.878;17.686;2023-01-15T15:22:31;4.10;99.90
23188;DHT22;11762;59.878;17.686;2023-01-15T15:25:00;4.00;99.90
23188;DHT22;11762;59.878;17.686;2023-01-15T15:27:34;4.00;99.90
23188;DHT22;11762;59.878;17.686;2023-01-15T15:30:07;3.90;99.90
23188;DHT22;11762;59.878;17.686;2023-01-15T15:32:36;3.90;99.90
23188;DHT22;11762;59.878;17.686;2023-01-15T15:35:23;3.90;99.90
23188;DHT22;11762;59.878;17.686;2023-01-15T15:37:51;3.80;99.90
23188;DHT22;11762;59.878;17.686;2023-01-15T15:40:20;3.90;99.90
23188;DHT22;11762;59.878;17.686;2023-01-15T15:42:54;3.90;99.90
23188;DHT22;11762;59.878;17.686;2023-01-15T15:45:50;3.80;99.90
23188;DHT22;11762;59.878;17.686;2023-01-15T15:48:35;3.80;99.90
23188;DHT22;11762;59.878;17.686;2023-01-15T15:51:28;3.80;99.90
23188;DHT22;11762;59.878;17.686;2023-01-15T15:54:13;3.70;99.90
23188;DHT22;11762;59.878;17.686;2023-01-15T15:56:55;3.70;99.90
23188;DHT22;11762;59.878;17.686;2023-01-15T15:59:29;3.70;99.90
23188;DHT22;11762;59.878;17.686;2023-01-15T16:01:58;3.70;99.90
23188;DHT22;11762;59.878;17.686;2023-01-15T16:04:26;3.70;99.90
23188;DHT22;11762;59.878;17.686;2023-01-15T16:06:55;3.70;99.90
23188;DHT22;11762;59.878;17.686;2023-01-15T16:09:23;3.60;99.90
23188;DHT22;11762;59.878;17.686;2023-01-15T16:11:51;3.60;99.90